10/06/2024

Boletín informativo HCV

PRETICOR núm. 5 elaborado por UT902, mayo 2024. Meteorología > Observaciones > Humedad Combustible

30/05/2024

Espurna abril 2024

Publicado el boletín Espurna núm. 179, correspondiente al mes de abril de 2024. 
Incendios forestales > Espurna

16/04/2024

Prohibición quemas

Por resolución de 15 de abril de 2024 de la Generalitat Valenciana, quedan prohibidas las quemas del 15 de abril al 15 de octubre de 2024. Ver

08/02/2024

Infomes Post-incendio

Nuevo informe de la Unidad de Análisis de Incendios Forestales UT902 para La Vall d'Ebo 13/08/2022.
Incendios forestales > Informes post-incendio

Datos Meteorológicos

CS VLC ALI
Observatorio Temp H.R. Lluvia Vto. dir. Vel. Fecha
Aitana 16 62 13 20/06/2024 09:00
Aixorta 16 60 4 20/06/2024 09:00
Alto de Alcola 16 59 28 20/06/2024 09:00
Alto del Pino 17 91 9 20/06/2024 09:00
Alto Negro 17 70 4 20/06/2024 09:00
Ametler 21 75 7 20/06/2024 09:00
Besori 21 51 16 20/06/2024 09:00
Buena Leche 16 64 10 20/06/2024 09:00
Cabezo 17 90 9 20/06/2024 09:00
Canals 15 85 8 20/06/2024 09:00
Caperucho 17 54 15 20/06/2024 09:00
Casa del Doctor 20 52 0 20/06/2024 09:00
Cerro Carpio 18 62 7 20/06/2024 09:00
Cerro Simón 14 78 10 20/06/2024 09:00
Cocoll 16 56 9 20/06/2024 09:00
Coll de Rates 18 49 3 20/06/2024 09:00
Creu del Gelat 17 81 26 20/06/2024 09:00
Desert de les Palmes 17 91 29 20/06/2024 09:00
El Frontón 19 78 2 20/06/2024 09:00
El Gavilán 8 100 10 20/06/2024 09:00
El Salviar 15 63 5 20/06/2024 09:00
El Turmell 12 100 4 20/06/2024 09:00
Font Roja 14 62 12 20/06/2024 09:00
Fredes 12 95 24 20/06/2024 09:00
La Herrada 19 52 9 20/06/2024 09:00
La Hunde 14 63 20 20/06/2024 09:00
La Travina 15 64 14 20/06/2024 09:00
Las Hierbas 15 65 36 20/06/2024 09:00
Lloma Bernat 13 92 18 20/06/2024 09:00
Maigmó 15 55 9 20/06/2024 09:00
Mariola 14 67 10 20/06/2024 09:00
Miserat 18 57 11 20/06/2024 09:00
Moluengo 15 60 21 20/06/2024 09:00
Monte Mayor 21 48 9 20/06/2024 09:00
Peñas de Amador 15 87 19 20/06/2024 09:00
Pico del Remedio 15 70 7 20/06/2024 09:00
Pico Ropé 15 63 17 20/06/2024 09:00
Puntal Aljibe 16 90 8 20/06/2024 09:00
Reclot 16 59 16 20/06/2024 09:00
Reconco 12 73 25 20/06/2024 09:00
Santa Bárbara 11 100 16 20/06/2024 09:00
Santa Faz 26 41 6 20/06/2024 09:00
Serrella 16 56 11 20/06/2024 09:00
Subarra 19 82 8 20/06/2024 09:00
Valdesierras 16 60 14 20/06/2024 09:00
Vallada 16 59 26 20/06/2024 09:00
Alto del Pinar 24 64 3 19/06/2024 18:00
Benicadell 22 60 12 19/06/2024 18:00
Boqueras 22 40 14 19/06/2024 18:00
Cabeçó d'or 18 73 8 19/06/2024 18:00
Canalisses 24 46 9 19/06/2024 18:00
Caroche 21 37 10 19/06/2024 18:00
Castillico 21 37 3 19/06/2024 18:00
El Picayo 23 54 9 19/06/2024 18:00
Feliciano 27 42 12 19/06/2024 18:00
La Muela 26 59 12 19/06/2024 18:00
Mondúver 20 68 10 19/06/2024 18:00
Palmeral 27 39 12 19/06/2024 18:00
Penyagolosa 15 69 13 19/06/2024 18:00
Pico del Águila 27 31 6 19/06/2024 18:00
San José 24 49 14 19/06/2024 18:00
Sierra del Ave 23 36 12 19/06/2024 18:00
Sierra Martés 21 35 15 19/06/2024 18:00
Sierra Negrete 18 36 23 19/06/2024 18:00
Torreciprés 19 54 32 19/06/2024 18:00
Vallivana 18 57 19 19/06/2024 18:00
Municipio Festejo Fecha
Alfarb Fogueres de Sant Joan 23/06-23/06
Xeraco Noche de San Juan 23/06-24/06
Alacant/Alicante Hogueras de San Juan 25/06-29/06
Villena San Juan Bautista (castillo) 29/06-30/06
Moixent/Mogente San Pedro Apóstol 29/06-29/06
Alcoi/Alcoy Solstici del Barri de Partidor 29/06-29/06
Villena Sant Joan Baptista 30/06

Leyenda